Time;durP1;ratioP1;P1;durP2;ratioP2;P2;SDS_P1;SDS_P2;PMS_P1;PMS_P2;Temp;Humidity;BMP_temperature;BMP_pressure;BME280_temperature;BME280_humidity;BME280_pressure;Samples;Min_cycle;Max_cycle;Signal;HPM_P1;HPM_P2
2022/01/03 00:01:30;;;;;;;4.40;2.22;;;0.80;82.70;;;;;;5059888;28;20033;-81
2022/01/03 00:03:56;;;;;;;1.73;1.63;;;0.90;82.40;;;;;;5049256;28;20029;-80
2022/01/03 00:06:21;;;;;;;2.00;1.73;;;1.00;82.20;;;;;;5037240;28;20025;-80
2022/01/03 00:08:48;;;;;;;2.35;2.00;;;1.00;82.00;;;;;;5040919;28;20044;-78
2022/01/03 00:11:17;;;;;;;5.38;2.78;;;1.10;81.90;;;;;;5042532;28;20136;-81
2022/01/03 00:13:45;;;;;;;3.90;2.60;;;1.10;81.80;;;;;;5035426;28;20056;-75
2022/01/03 00:16:11;;;;;;;2.60;1.90;;;1.10;81.50;;;;;;5036157;28;20029;-79
2022/01/03 00:18:38;;;;;;;4.10;2.47;;;1.20;81.60;;;;;;5035653;28;20124;-78
2022/01/03 00:21:09;;;;;;;4.53;2.83;;;1.20;81.70;;;;;;5040479;28;20036;-78
2022/01/03 00:23:38;;;;;;;4.40;2.15;;;1.20;81.80;;;;;;5054192;28;20057;-79
2022/01/03 00:26:06;;;;;;;2.78;2.25;;;1.20;81.80;;;;;;5051535;28;20477;-82
2022/01/03 00:28:34;;;;;;;2.78;2.17;;;1.20;81.80;;;;;;5048092;28;20033;-78
2022/01/03 00:31:00;;;;;;;3.22;2.33;;;1.20;82.00;;;;;;5043637;28;20029;-80
2022/01/03 00:33:27;;;;;;;5.03;2.13;;;1.30;82.30;;;;;;5046970;28;20032;-80
2022/01/03 00:36:03;;;;;;;2.10;1.90;;;1.30;82.50;;;;;;5040051;28;20075;-81
2022/01/03 00:38:31;;;;;;;2.03;1.77;;;1.30;82.60;;;;;;5038171;28;20025;-80
2022/01/03 00:41:01;;;;;;;3.20;1.95;;;1.40;82.70;;;;;;5049264;28;20036;-79
2022/01/03 00:43:29;;;;;;;1.80;1.70;;;1.40;82.60;;;;;;5042739;28;20372;-83
2022/01/03 00:45:56;;;;;;;2.88;1.90;;;1.40;82.60;;;;;;5050570;28;20024;-78
2022/01/03 00:48:22;;;;;;;4.00;2.17;;;1.40;82.50;;;;;;5043388;28;20033;-79
2022/01/03 00:50:49;;;;;;;3.40;2.28;;;1.50;82.50;;;;;;5053383;28;20041;-80
2022/01/03 00:53:15;;;;;;;3.03;1.77;;;1.50;82.30;;;;;;5049356;28;20028;-82
2022/01/03 00:56:05;;;;;;;4.45;2.20;;;1.50;82.40;;;;;;5052937;28;20485;-79
2022/01/03 00:58:36;;;;;;;2.33;1.90;;;1.50;82.50;;;;;;5041899;28;20026;-74
2022/01/03 01:01:04;;;;;;;2.83;2.20;;;1.60;82.20;;;;;;5048891;28;20124;-74
2022/01/03 01:03:36;;;;;;;4.20;2.00;;;1.60;82.00;;;;;;5039673;28;20134;-79
2022/01/03 01:06:08;;;;;;;2.85;1.83;;;1.60;81.80;;;;;;5039680;28;20017;-76
2022/01/03 01:08:36;;;;;;;3.70;2.55;;;1.60;81.80;;;;;;5040866;28;20063;-79
2022/01/03 01:11:07;;;;;;;2.83;2.05;;;1.60;81.40;;;;;;5058916;28;20032;-77
2022/01/03 01:13:35;;;;;;;4.25;2.75;;;1.60;81.20;;;;;;5060171;28;20053;-77
2022/01/03 01:16:06;;;;;;;3.67;2.28;;;1.70;81.20;;;;;;5051133;28;20040;-81
2022/01/03 01:18:36;;;;;;;3.35;2.30;;;1.70;81.20;;;;;;5049201;28;20025;-74
2022/01/03 01:21:03;;;;;;;4.95;2.42;;;1.70;81.30;;;;;;5041072;28;20076;-78
2022/01/03 01:23:29;;;;;;;4.07;2.40;;;1.70;81.60;;;;;;5041812;28;20029;-79
2022/01/03 01:28:20;;;;;;;3.67;1.90;;;1.70;82.10;;;;;;5040140;28;20024;-80
2022/01/03 01:30:53;;;;;;;2.42;2.08;;;1.70;82.20;;;;;;5040693;28;20395;-80
2022/01/03 01:33:19;;;;;;;4.03;2.22;;;1.70;82.50;;;;;;5058075;28;20045;-75
2022/01/03 01:35:48;;;;;;;4.47;2.55;;;1.70;82.70;;;;;;5048178;28;20086;-80
2022/01/03 01:38:23;;;;;;;4.07;2.33;;;1.80;83.20;;;;;;5035268;28;20044;-77
2022/01/03 01:40:56;;;;;;;6.45;5.25;;;1.80;83.30;;;;;;5039571;28;20057;-79
2022/01/03 01:43:41;;;;;;;4.60;2.90;;;1.80;83.80;;;;;;5042024;28;20617;-80
2022/01/03 01:46:17;;;;;;;6.18;2.72;;;1.90;84.20;;;;;;5042270;28;20482;-80
2022/01/03 01:48:48;;;;;;;;;;;1.90;84.00;;;;;;5042389;28;20021;-80
2022/01/03 01:51:17;;;;;;;3.05;2.00;;;1.90;84.30;;;;;;5041819;28;19917;-78
2022/01/03 01:53:48;;;;;;;6.40;2.67;;;1.90;84.30;;;;;;5038039;28;20032;-80
2022/01/03 01:56:34;;;;;;;2.53;2.10;;;1.80;84.60;;;;;;5038226;28;20400;-77
2022/01/03 01:59:19;;;;;;;2.78;2.33;;;1.90;85.30;;;;;;5040740;28;20051;-79
2022/01/03 02:01:47;;;;;;;4.78;2.70;;;1.90;85.70;;;;;;5037789;28;20076;-81
2022/01/03 02:04:34;;;;;;;6.10;3.45;;;2.00;86.00;;;;;;5041220;28;20094;-78
2022/01/03 02:07:40;;;;;;;4.78;2.95;;;2.00;86.20;;;;;;5042204;28;20029;-78
2022/01/03 02:10:12;;;;;;;4.60;2.70;;;2.00;86.60;;;;;;5049868;28;20387;-75
2022/01/03 02:12:43;;;;;;;3.83;2.38;;;2.00;87.00;;;;;;5045447;28;20053;-79
2022/01/03 02:15:14;;;;;;;4.78;2.67;;;2.10;87.40;;;;;;5041934;28;20079;-79
2022/01/03 02:17:44;;;;;;;4.93;2.92;;;2.10;88.10;;;;;;5042005;28;20025;-81
2022/01/03 02:20:26;;;;;;;5.57;3.08;;;2.10;88.70;;;;;;5047569;28;20128;-79
2022/01/03 02:22:53;;;;;;;5.63;3.13;;;2.10;90.10;;;;;;5041574;28;20029;-78
2022/01/03 02:25:21;;;;;;;4.97;2.70;;;2.10;90.40;;;;;;5060014;28;20021;-80
2022/01/03 02:27:51;;;;;;;3.75;2.58;;;2.10;90.90;;;;;;5053771;28;20040;-77
2022/01/03 02:30:25;;;;;;;4.28;2.33;;;2.10;91.40;;;;;;5059626;28;20099;-79
2022/01/03 02:32:51;;;;;;;5.07;3.58;;;2.10;91.80;;;;;;5033437;28;20116;-79
2022/01/03 02:35:17;;;;;;;3.97;2.50;;;2.10;92.00;;;;;;5036343;28;20056;-78
2022/01/03 02:37:45;;;;;;;4.25;2.80;;;2.10;92.50;;;;;;5044970;28;20121;-78
2022/01/03 02:40:11;;;;;;;6.85;3.38;;;2.10;92.90;;;;;;5034081;28;20079;-82
2022/01/03 02:42:38;;;;;;;3.28;2.85;;;2.10;93.20;;;;;;5050324;28;20082;-83
2022/01/03 02:45:12;;;;;;;7.07;4.10;;;2.10;93.20;;;;;;5045386;28;20029;-78
2022/01/03 02:47:38;;;;;;;3.72;2.38;;;2.20;93.20;;;;;;5035625;28;20030;-81
2022/01/03 02:50:06;;;;;;;7.78;4.10;;;2.20;93.20;;;;;;5035725;28;20056;-78
2022/01/03 02:52:33;;;;;;;5.78;2.72;;;2.30;93.20;;;;;;5041848;28;20426;-78
2022/01/03 02:55:00;;;;;;;6.40;3.50;;;2.30;93.30;;;;;;5041630;28;20034;-79
2022/01/03 02:57:32;;;;;;;4.43;2.40;;;2.20;93.30;;;;;;5035256;28;20021;-75
2022/01/03 02:59:58;;;;;;;8.63;3.67;;;2.30;93.40;;;;;;5041668;28;20041;-80
2022/01/03 03:02:26;;;;;;;8.60;4.43;;;2.30;93.20;;;;;;5051427;28;20059;-79
2022/01/03 03:04:57;;;;;;;10.90;4.93;;;2.30;93.30;;;;;;5047581;28;20033;-80
2022/01/03 03:07:25;;;;;;;13.20;7.40;;;2.30;93.30;;;;;;5042887;28;20021;-77
2022/01/03 03:09:50;;;;;;;9.82;5.20;;;2.40;93.30;;;;;;5040174;28;20055;-79
2022/01/03 03:12:16;;;;;;;11.00;5.18;;;2.40;93.30;;;;;;5052483;28;20159;-78
2022/01/03 03:14:42;;;;;;;9.43;5.60;;;2.40;93.30;;;;;;5052003;28;20060;-78
2022/01/03 03:17:08;;;;;;;7.07;3.58;;;2.40;93.50;;;;;;5044650;28;20031;-76
2022/01/03 03:19:53;;;;;;;9.23;3.97;;;2.40;93.60;;;;;;5041295;28;20496;-79
2022/01/03 03:22:19;;;;;;;17.50;7.43;;;2.50;93.70;;;;;;5049463;28;20356;-77
2022/01/03 03:24:45;;;;;;;22.77;12.68;;;2.50;93.70;;;;;;5048030;28;20032;-79
2022/01/03 03:27:12;;;;;;;39.88;15.32;;;2.50;93.80;;;;;;5039674;28;20028;-79
2022/01/03 03:29:48;;;;;;;35.88;12.95;;;2.50;93.70;;;;;;5047374;28;20035;-76
2022/01/03 03:32:14;;;;;;;31.38;9.68;;;2.50;93.90;;;;;;5038453;28;20064;-77
2022/01/03 03:34:40;;;;;;;7.35;3.83;;;2.50;94.20;;;;;;5037213;28;20057;-78
2022/01/03 03:37:06;;;;;;;18.85;7.53;;;2.50;94.30;;;;;;5044233;28;20558;-80
2022/01/03 03:39:33;;;;;;;22.10;9.82;;;2.50;94.30;;;;;;5056717;28;20060;-79
2022/01/03 03:42:00;;;;;;;35.17;13.32;;;2.50;94.50;;;;;;5053076;28;20023;-82
2022/01/03 03:44:26;;;;;;;38.08;12.18;;;2.50;94.60;;;;;;5059377;28;20060;-76
2022/01/03 03:46:52;;;;;;;65.78;29.77;;;2.50;94.70;;;;;;5051374;28;20025;-81
2022/01/03 03:49:18;;;;;;;17.15;8.00;;;2.60;95.10;;;;;;5037574;28;20075;-78
2022/01/03 03:51:43;;;;;;;18.33;6.75;;;2.60;94.60;;;;;;5047158;28;20091;-78
2022/01/03 03:54:09;;;;;;;21.17;8.93;;;2.50;94.60;;;;;;5048589;28;20386;-78
2022/01/03 03:56:34;;;;;;;14.98;5.93;;;2.50;94.70;;;;;;5037928;28;20536;-78
2022/01/03 03:59:00;;;;;;;16.95;6.30;;;2.50;94.90;;;;;;5049140;28;20056;-83
2022/01/03 04:01:26;;;;;;;16.52;7.40;;;2.60;95.10;;;;;;5045604;28;20021;-76
2022/01/03 04:03:51;;;;;;;29.50;9.65;;;2.60;95.10;;;;;;5037557;28;20025;-78
2022/01/03 04:06:18;;;;;;;14.82;5.97;;;2.60;95.10;;;;;;5044035;28;20523;-75
2022/01/03 04:08:45;;;;;;;29.23;10.48;;;2.60;95.40;;;;;;5043868;28;20379;-80
2022/01/03 04:11:15;;;;;;;29.55;16.63;;;2.60;95.40;;;;;;5053111;28;20048;-75
2022/01/03 04:13:41;;;;;;;19.23;7.80;;;2.60;96.20;;;;;;5039203;28;20486;-79
2022/01/03 04:16:07;;;;;;;20.80;9.75;;;2.60;95.70;;;;;;5042980;28;20029;-82
2022/01/03 04:18:33;;;;;;;26.10;11.68;;;2.70;95.80;;;;;;5042470;28;20029;-78
2022/01/03 04:21:00;;;;;;;42.15;21.55;;;2.60;96.00;;;;;;5041067;28;20025;-79
2022/01/03 04:23:25;;;;;;;11.48;5.40;;;2.60;96.70;;;;;;5045040;28;20052;-80
2022/01/03 04:25:51;;;;;;;12.82;5.85;;;2.70;96.10;;;;;;5049808;28;20029;-79
2022/01/03 04:28:17;;;;;;;10.48;5.03;;;2.70;96.20;;;;;;5038276;28;20448;-78
2022/01/03 04:30:43;;;;;;;10.55;5.07;;;2.70;96.50;;;;;;5044175;28;20044;-79
2022/01/03 04:33:09;;;;;;;20.73;8.13;;;2.70;96.60;;;;;;5055927;28;20029;-82
2022/01/03 04:35:35;;;;;;;16.45;6.38;;;2.70;96.60;;;;;;5042444;28;20029;-78
2022/01/03 04:38:01;;;;;;;12.18;5.93;;;2.70;96.70;;;;;;5038004;28;20063;-79
2022/01/03 04:40:26;;;;;;;10.38;5.10;;;2.80;96.60;;;;;;5041119;28;20114;-81
2022/01/03 04:42:52;;;;;;;11.77;5.65;;;2.80;96.60;;;;;;5051279;28;20022;-80
2022/01/03 04:45:18;;;;;;;47.50;22.88;;;2.80;96.80;;;;;;5039083;28;20067;-81
2022/01/03 04:47:44;;;;;;;38.83;14.50;;;2.80;97.30;;;;;;5042241;28;20468;-78
2022/01/03 04:50:09;;;;;;;44.70;15.57;;;2.80;96.60;;;;;;5042282;28;20092;-79
2022/01/03 04:52:35;;;;;;;100.35;33.47;;;2.80;96.70;;;;;;5040277;28;20089;-80
2022/01/03 04:55:01;;;;;;;39.72;15.75;;;2.90;96.70;;;;;;5049250;28;20055;-79
2022/01/03 04:57:27;;;;;;;43.25;15.20;;;2.90;96.80;;;;;;5050724;28;20475;-84
2022/01/03 04:59:53;;;;;;;24.05;10.00;;;2.90;96.90;;;;;;5041125;28;20030;-83
2022/01/03 05:02:19;;;;;;;45.58;16.63;;;2.90;97.00;;;;;;5039132;28;20041;-80
2022/01/03 05:04:45;;;;;;;58.88;22.00;;;2.90;97.00;;;;;;5046298;28;20105;-77
2022/01/03 05:07:11;;;;;;;31.27;13.10;;;2.90;96.90;;;;;;5050584;28;20033;-75
2022/01/03 05:09:36;;;;;;;122.30;53.65;;;2.90;96.90;;;;;;5046196;28;20120;-76
2022/01/03 05:12:03;;;;;;;78.38;19.83;;;3.00;97.40;;;;;;5037883;28;20120;-75
2022/01/03 05:14:28;;;;;;;106.60;34.42;;;3.00;96.80;;;;;;5043965;28;20032;-76
2022/01/03 05:16:57;;;;;;;177.38;72.88;;;3.00;96.70;;;;;;5043667;28;20040;-74
2022/01/03 05:19:22;;;;;;;79.03;25.00;;;3.00;97.30;;;;;;5036271;28;20057;-79
2022/01/03 05:21:48;;;;;;;75.45;26.30;;;3.10;96.60;;;;;;5049814;28;20390;-83
2022/01/03 05:24:14;;;;;;;83.38;27.17;;;3.10;96.60;;;;;;5046994;28;20029;-78
2022/01/03 05:26:40;;;;;;;41.17;16.35;;;3.10;96.60;;;;;;5053913;28;20471;-77
2022/01/03 05:29:05;;;;;;;55.60;23.60;;;3.10;96.60;;;;;;5053364;28;20025;-78
2022/01/03 05:31:31;;;;;;;56.90;21.40;;;3.10;96.60;;;;;;5051981;28;20037;-77
2022/01/03 05:33:57;;;;;;;188.52;80.00;;;3.10;96.70;;;;;;5054460;28;20067;-74
2022/01/03 05:36:23;;;;;;;83.95;29.40;;;3.10;97.40;;;;;;5053333;28;20021;-75
2022/01/03 05:38:49;;;;;;;79.07;23.83;;;3.10;96.70;;;;;;5054706;28;20053;-75
2022/01/03 05:41:14;;;;;;;82.72;25.05;;;3.10;96.70;;;;;;5053216;28;20545;-75
2022/01/03 05:43:40;;;;;;;92.50;30.90;;;3.10;96.70;;;;;;5054463;28;20055;-80
2022/01/03 05:46:06;;;;;;;62.42;22.85;;;3.10;96.80;;;;;;5053079;28;20025;-76
2022/01/03 05:48:31;;;;;;;92.20;28.42;;;3.10;96.80;;;;;;5055338;28;20025;-77
2022/01/03 05:50:57;;;;;;;94.28;25.38;;;3.20;96.90;;;;;;5063285;28;20066;-76
2022/01/03 05:53:23;;;;;;;54.97;19.13;;;3.20;96.80;;;;;;5057763;28;20025;-75
2022/01/03 05:55:49;;;;;;;93.43;31.77;;;3.20;96.60;;;;;;5053340;28;20025;-77
2022/01/03 05:58:16;;;;;;;189.98;79.63;;;3.20;96.70;;;;;;5054266;28;20021;-77
2022/01/03 06:00:42;;;;;;;83.03;30.52;;;3.20;97.30;;;;;;5056338;28;20532;-74
2022/01/03 06:03:08;;;;;;;50.17;17.85;;;3.30;96.60;;;;;;5064393;28;20029;-76
2022/01/03 06:08:03;;;;;;;35.58;14.00;;;3.30;96.70;;;;;;5068871;28;20047;-75
2022/01/03 06:10:29;;;;;;;33.08;11.43;;;3.30;96.50;;;;;;5070628;28;20044;-75
2022/01/03 06:12:55;;;;;;;20.52;9.00;;;3.30;96.50;;;;;;5065159;28;20041;-75
2022/01/03 06:15:25;;;;;;;38.70;14.20;;;3.40;96.50;;;;;;5054138;28;20387;-79
2022/01/03 06:17:52;;;;;;;49.80;11.25;;;3.40;96.40;;;;;;5053724;28;20020;-76
2022/01/03 06:20:18;;;;;;;132.00;58.47;;;3.40;96.30;;;;;;5052547;28;21064;-76
2022/01/03 06:22:44;;;;;;;58.15;19.73;;;3.40;96.40;;;;;;5053627;28;20460;-77
2022/01/03 06:25:11;;;;;;;62.90;20.42;;;3.50;95.70;;;;;;5052921;28;20021;-74
2022/01/03 06:27:38;;;;;;;88.97;28.27;;;3.50;95.70;;;;;;5053814;28;20040;-75
2022/01/03 06:30:08;;;;;;;72.93;24.05;;;3.40;95.90;;;;;;5053487;28;20059;-76
2022/01/03 06:32:34;;;;;;;79.82;24.83;;;3.40;95.80;;;;;;5052190;28;20029;-78
2022/01/03 06:35:00;;;;;;;55.50;19.05;;;3.40;95.80;;;;;;5052426;28;20028;-79
2022/01/03 06:37:26;;;;;;;50.28;18.60;;;3.40;95.80;;;;;;5053567;28;20473;-77
2022/01/03 06:39:51;;;;;;;67.10;22.02;;;3.40;96.10;;;;;;5052696;28;20120;-74
2022/01/03 06:42:17;;;;;;;74.90;20.63;;;3.50;96.30;;;;;;5053712;28;20033;-77
2022/01/03 06:44:46;;;;;;;51.63;15.27;;;3.50;96.60;;;;;;5052807;28;20104;-75
2022/01/03 06:47:12;;;;;;;50.63;16.58;;;3.60;96.80;;;;;;5053266;28;20029;-79
2022/01/03 06:49:38;;;;;;;54.47;28.05;;;3.70;96.50;;;;;;5053641;28;20523;-75
2022/01/03 06:52:04;;;;;;;19.88;9.27;;;3.70;96.80;;;;;;5052359;28;20032;-76
2022/01/03 06:54:32;;;;;;;17.63;8.35;;;3.80;96.30;;;;;;5052605;28;20112;-75
2022/01/03 06:56:57;;;;;;;8.88;5.30;;;3.80;95.80;;;;;;5053291;28;20463;-76
2022/01/03 06:59:23;;;;;;;13.30;5.80;;;3.90;96.10;;;;;;5051699;28;20036;-75
2022/01/03 07:01:49;;;;;;;21.05;14.88;;;3.90;96.20;;;;;;5053117;28;20028;-78
2022/01/03 07:04:14;;;;;;;12.45;5.50;;;4.00;96.00;;;;;;5053681;28;20029;-79
2022/01/03 07:06:40;;;;;;;29.92;9.23;;;4.10;95.50;;;;;;5038630;28;20029;-81
2022/01/03 07:09:07;;;;;;;22.55;9.43;;;4.10;94.70;;;;;;5035373;28;20026;-78
2022/01/03 07:11:34;;;;;;;24.45;14.75;;;4.10;95.00;;;;;;5035074;28;20041;-78
2022/01/03 07:18:56;;;;;;;9.50;4.70;;;4.20;95.40;;;;;;5035162;28;20455;-79
2022/01/03 07:19:41;;;;;;;17.45;6.90;;;4.30;94.70;;;;;;5049553;28;20035;-79
2022/01/03 07:22:11;;;;;;;10.25;5.28;;;4.40;94.40;;;;;;5047384;28;20024;-78
2022/01/03 07:24:39;;;;;;;14.35;7.47;;;4.40;94.50;;;;;;5051625;28;20060;-79
2022/01/03 07:27:08;;;;;;;13.98;7.93;;;4.50;94.70;;;;;;5033564;28;20119;-80
2022/01/03 07:29:34;;;;;;;16.25;6.90;;;4.60;94.60;;;;;;5053041;28;20375;-79
2022/01/03 07:32:00;;;;;;;15.00;7.57;;;4.60;94.50;;;;;;5062982;28;20021;-80
2022/01/03 07:34:26;;;;;;;15.20;7.30;;;4.60;94.40;;;;;;5043150;28;20430;-77
2022/01/03 07:36:53;;;;;;;17.20;12.65;;;4.60;94.10;;;;;;5032648;28;20105;-80
2022/01/03 07:39:19;;;;;;;16.33;7.50;;;4.60;94.20;;;;;;5034362;28;20028;-82
2022/01/03 07:41:45;;;;;;;19.25;13.88;;;4.70;93.60;;;;;;5038805;28;20111;-83
2022/01/03 07:44:11;;;;;;;19.63;14.23;;;4.70;93.60;;;;;;5050104;28;20112;-79
2022/01/03 07:46:37;;;;;;;14.23;7.47;;;4.80;93.20;;;;;;5054501;28;20055;-83
2022/01/03 07:49:03;;;;;;;22.08;13.57;;;4.80;92.80;;;;;;5062714;28;20471;-78
2022/01/03 07:51:30;;;;;;;12.27;5.93;;;4.80;92.90;;;;;;5052823;28;20029;-79
2022/01/03 07:54:00;;;;;;;11.30;5.20;;;4.90;92.70;;;;;;5058165;28;20036;-77
2022/01/03 07:56:26;;;;;;;17.55;12.90;;;4.80;92.60;;;;;;5055434;28;20025;-80
2022/01/03 07:58:52;;;;;;;18.45;13.13;;;4.80;92.70;;;;;;5060992;28;20028;-80
2022/01/03 08:01:18;;;;;;;16.08;12.82;;;4.90;92.50;;;;;;5044268;28;20025;-77
2022/01/03 08:03:43;;;;;;;11.57;6.57;;;4.90;92.30;;;;;;5045148;28;20026;-81
2022/01/03 08:06:10;;;;;;;10.15;5.68;;;4.90;92.00;;;;;;5045804;28;20036;-82
2022/01/03 08:08:37;;;;;;;14.27;6.05;;;4.90;92.40;;;;;;5040856;28;20021;-82
2022/01/03 08:11:04;;;;;;;19.80;15.18;;;5.00;92.80;;;;;;5045652;28;20041;-82
2022/01/03 08:13:29;;;;;;;21.83;16.10;;;5.10;93.00;;;;;;5045778;28;20051;-81
2022/01/03 08:15:55;;;;;;;15.00;7.35;;;5.20;92.40;;;;;;5047394;28;20391;-77
2022/01/03 08:18:21;;;;;;;12.80;7.70;;;5.30;91.80;;;;;;5051371;28;20029;-77
2022/01/03 08:20:46;;;;;;;14.63;8.45;;;5.30;91.70;;;;;;5058300;28;20090;-79
2022/01/03 08:23:12;;;;;;;17.77;13.20;;;5.30;91.80;;;;;;5043394;28;20022;-80
2022/01/03 08:25:38;;;;;;;18.77;14.00;;;5.30;91.70;;;;;;5036895;28;20113;-83
2022/01/03 08:28:06;;;;;;;23.27;10.73;;;5.40;91.50;;;;;;5058036;28;20029;-77
2022/01/03 08:30:32;;;;;;;17.92;14.48;;;5.40;91.30;;;;;;5068454;28;20055;-79
2022/01/03 08:32:57;;;;;;;13.68;7.65;;;5.50;91.20;;;;;;5069717;28;20044;-77
2022/01/03 08:35:24;;;;;;;18.00;13.65;;;5.50;90.70;;;;;;5088128;28;20113;-77
2022/01/03 08:37:51;;;;;;;12.77;6.80;;;5.40;90.90;;;;;;5080318;28;20020;-77
2022/01/03 08:40:17;;;;;;;15.85;12.55;;;5.40;90.90;;;;;;5060817;28;20502;-77
2022/01/03 08:42:43;;;;;;;15.90;6.10;;;5.40;91.20;;;;;;5047567;28;20025;-76
2022/01/03 08:45:09;;;;;;;18.83;13.38;;;5.50;90.90;;;;;;5067416;28;20449;-75
2022/01/03 08:47:35;;;;;;;13.10;6.78;;;5.50;91.10;;;;;;5036596;28;20124;-79
2022/01/03 08:50:00;;;;;;;18.45;13.20;;;5.60;91.10;;;;;;5036693;28;20124;-81
2022/01/03 08:52:26;;;;;;;22.83;14.40;;;5.60;91.20;;;;;;5039501;28;20033;-78
2022/01/03 08:54:52;;;;;;;21.98;14.60;;;5.70;90.70;;;;;;5052013;28;20040;-79
2022/01/03 08:57:18;;;;;;;25.50;15.98;;;5.80;90.40;;;;;;5039716;28;20525;-75
2022/01/03 08:59:44;;;;;;;24.10;15.48;;;5.80;90.20;;;;;;5035258;28;20033;-75
2022/01/03 09:02:09;;;;;;;17.63;6.45;;;5.80;90.10;;;;;;5034314;28;20030;-76
2022/01/03 09:04:35;;;;;;;19.67;13.02;;;5.80;89.70;;;;;;5035226;28;20025;-78
2022/01/03 09:07:01;;;;;;;10.60;5.68;;;5.80;90.20;;;;;;5033226;28;20033;-77
2022/01/03 09:09:29;;;;;;;16.58;12.93;;;5.80;90.20;;;;;;5034051;28;20033;-76
2022/01/03 09:11:55;;;;;;;18.33;12.90;;;5.80;90.30;;;;;;5044520;28;20064;-78
2022/01/03 09:14:21;;;;;;;13.15;6.68;;;5.80;90.20;;;;;;5039639;28;20025;-77
2022/01/03 09:16:46;;;;;;;16.73;12.60;;;5.80;89.90;;;;;;5049021;28;20061;-77
2022/01/03 09:19:12;;;;;;;18.08;12.98;;;5.80;90.20;;;;;;5052223;28;20025;-77
2022/01/03 09:21:38;;;;;;;19.00;13.10;;;5.80;89.90;;;;;;5034814;28;20110;-76
2022/01/03 09:29:34;;;;;;;18.73;14.90;;;5.90;90.30;;;;;;5035346;28;20108;-79
2022/01/03 09:31:59;;;;;;;19.38;14.73;;;6.00;90.50;;;;;;5042911;28;20459;-80
2022/01/03 09:34:25;;;;;;;21.33;15.63;;;6.10;90.40;;;;;;5054138;28;20040;-77
2022/01/03 09:36:51;;;;;;;17.42;8.93;;;6.10;90.20;;;;;;5053698;28;20032;-79
2022/01/03 09:39:17;;;;;;;23.52;18.02;;;6.30;90.10;;;;;;5042702;28;20471;-76
2022/01/03 09:42:03;;;;;;;20.90;17.00;;;6.30;90.30;;;;;;5034358;28;20044;-78
2022/01/03 09:44:35;;;;;;;20.67;15.85;;;6.40;89.60;;;;;;5034890;28;20372;-75
2022/01/03 09:47:04;;;;;;;21.60;16.08;;;6.50;88.90;;;;;;5035620;28;20022;-77
2022/01/03 09:49:34;;;;;;;20.70;15.43;;;6.60;88.40;;;;;;5050542;28;20029;-77
2022/01/03 09:52:01;;;;;;;17.98;13.77;;;6.60;88.00;;;;;;5065270;28;20033;-78
2022/01/03 09:54:29;;;;;;;21.10;15.65;;;6.70;88.00;;;;;;5064747;28;20475;-75
2022/01/03 09:56:57;;;;;;;17.88;13.30;;;6.70;88.40;;;;;;5060675;28;20398;-78
2022/01/03 09:59:23;;;;;;;20.50;15.00;;;6.80;88.50;;;;;;5054196;28;20025;-78
2022/01/03 10:01:49;;;;;;;15.55;7.18;;;6.90;89.40;;;;;;5047880;28;20037;-75
2022/01/03 10:04:15;;;;;;;19.02;13.35;;;7.00;88.40;;;;;;5034251;28;20159;-76
2022/01/03 10:06:41;;;;;;;17.30;13.27;;;7.10;88.00;;;;;;5036143;28;20490;-80
2022/01/03 10:09:07;;;;;;;17.33;13.45;;;7.10;87.20;;;;;;5049505;28;20076;-76
2022/01/03 10:11:33;;;;;;;22.55;16.00;;;7.20;86.50;;;;;;5032926;28;20080;-79
2022/01/03 10:13:59;;;;;;;16.52;13.13;;;7.20;86.30;;;;;;5043417;28;20025;-78
2022/01/03 10:16:26;;;;;;;17.52;13.05;;;7.30;86.30;;;;;;5072406;28;20032;-74
2022/01/03 10:18:51;;;;;;;17.77;12.50;;;7.30;86.30;;;;;;5048932;28;20036;-76
2022/01/03 10:21:34;;;;;;;17.27;12.75;;;7.40;86.70;;;;;;5033743;28;20029;-76
2022/01/03 10:24:00;;;;;;;16.38;12.07;;;7.60;86.90;;;;;;5042517;28;20031;-78
2022/01/03 10:26:25;;;;;;;15.35;12.43;;;7.70;86.00;;;;;;5035147;28;20021;-74
2022/01/03 10:29:16;;;;;;;16.70;12.82;;;7.70;84.90;;;;;;5042160;28;20057;-77
2022/01/03 10:31:44;;;;;;;15.25;12.25;;;7.80;84.70;;;;;;5042631;28;20402;-75
2022/01/03 10:34:12;;;;;;;14.52;11.65;;;7.80;84.90;;;;;;5044900;28;20029;-77
2022/01/03 10:36:39;;;;;;;18.00;13.73;;;7.90;85.10;;;;;;5038911;28;20029;-76
2022/01/03 10:39:19;;;;;;;17.00;13.27;;;7.90;84.30;;;;;;5036614;28;20057;-77
2022/01/03 10:41:47;;;;;;;17.88;13.60;;;7.90;83.90;;;;;;5036880;28;20487;-73
2022/01/03 10:44:40;;;;;;;14.50;11.73;;;7.90;83.70;;;;;;5047057;28;20037;-76
2022/01/03 10:47:08;;;;;;;17.25;13.13;;;7.90;83.80;;;;;;5041435;28;20021;-75
2022/01/03 10:49:38;;;;;;;17.52;13.30;;;7.90;83.70;;;;;;5041612;28;20056;-74
2022/01/03 10:52:14;;;;;;;30.73;21.13;;;7.90;83.60;;;;;;5038512;28;20072;-74
2022/01/03 10:54:40;;;;;;;17.15;12.18;;;7.80;83.60;;;;;;5042935;28;20360;-75
2022/01/03 10:57:06;;;;;;;14.27;11.65;;;7.80;83.80;;;;;;5039992;28;20112;-79
2022/01/03 10:59:34;;;;;;;14.93;11.45;;;7.80;83.90;;;;;;5040153;28;20080;-75
2022/01/03 11:02:02;;;;;;;16.90;12.10;;;7.90;83.80;;;;;;5036359;28;20471;-80
2022/01/03 11:04:31;;;;;;;15.50;11.75;;;7.80;83.80;;;;;;5039683;28;20127;-77
2022/01/03 11:10:43;;;;;;;17.77;13.15;;;7.90;84.10;;;;;;5046531;28;20117;-79
2022/01/03 11:13:18;;;;;;;16.95;12.68;;;7.90;83.80;;;;;;5068090;28;20060;-76
2022/01/03 11:15:56;;;;;;;17.00;12.80;;;7.90;84.00;;;;;;5068735;28;20474;-76
2022/01/03 11:18:27;;;;;;;19.92;13.95;;;7.90;84.10;;;;;;5065095;28;20117;-76
2022/01/03 11:21:09;;;;;;;20.73;14.23;;;7.80;84.10;;;;;;5050122;28;20053;-75
2022/01/03 11:23:36;;;;;;;21.20;14.95;;;7.90;84.20;;;;;;5040171;28;20037;-77
2022/01/03 11:26:20;;;;;;;23.25;16.55;;;7.90;84.10;;;;;;5032386;28;20017;-80
2022/01/03 11:28:48;;;;;;;25.77;17.15;;;7.80;84.20;;;;;;5031709;28;20112;-76
2022/01/03 11:31:16;;;;;;;23.23;17.77;;;7.80;84.30;;;;;;5037432;28;20040;-75
2022/01/03 11:33:42;;;;;;;27.58;16.95;;;7.80;84.50;;;;;;5041822;28;20031;-78
2022/01/03 11:36:08;;;;;;;24.00;17.17;;;7.80;84.50;;;;;;5044009;28;20029;-79
2022/01/03 11:38:39;;;;;;;25.05;17.27;;;7.80;84.80;;;;;;5042640;28;20109;-78
2022/01/03 11:41:08;;;;;;;23.85;15.95;;;7.80;85.00;;;;;;5049950;28;20026;-75
2022/01/03 11:43:36;;;;;;;23.27;16.98;;;7.90;84.80;;;;;;5039632;28;20516;-85
2022/01/03 11:46:03;;;;;;;28.70;18.05;;;7.90;84.80;;;;;;5049781;28;20120;-84
2022/01/03 11:48:29;;;;;;;37.80;19.88;;;7.90;85.00;;;;;;5052902;28;20371;-87
2022/01/03 11:50:56;;;;;;;34.92;20.15;;;8.10;85.20;;;;;;5053338;28;20033;-76
2022/01/03 11:53:23;;;;;;;34.50;21.23;;;8.10;84.90;;;;;;5036707;28;20064;-81
2022/01/03 11:55:57;;;;;;;39.13;22.75;;;8.30;84.50;;;;;;5046666;28;20036;-79
2022/01/03 12:03:59;;;;;;;32.75;21.85;;;8.40;83.10;;;;;;5055397;28;20394;-81
2022/01/03 12:06:32;;;;;;;30.75;22.25;;;8.30;83.10;;;;;;5040134;28;20026;-77
2022/01/03 12:09:08;;;;;;;36.92;25.10;;;8.40;83.40;;;;;;5047179;28;20025;-77
2022/01/03 12:11:45;;;;;;;54.65;29.60;;;8.30;83.20;;;;;;5036423;28;20041;-80
2022/01/03 12:14:14;;;;;;;58.15;30.58;;;8.30;83.10;;;;;;5036895;28;20081;-77
2022/01/03 12:16:47;;;;;;;62.97;31.13;;;8.20;83.10;;;;;;5033265;28;20033;-76
2022/01/03 12:19:27;;;;;;;68.03;32.92;;;8.20;83.20;;;;;;5036488;28;20029;-76
2022/01/03 12:21:58;;;;;;;72.45;35.33;;;8.10;83.00;;;;;;5041993;28;20117;-73
2022/01/03 12:24:27;;;;;;;57.97;31.25;;;8.10;83.90;;;;;;5047839;28;20029;-74
2022/01/03 12:27:14;;;;;;;52.53;26.88;;;8.20;83.70;;;;;;5038905;28;20453;-73
2022/01/03 12:29:55;;;;;;;48.22;27.33;;;8.20;83.40;;;;;;5042948;28;20033;-73
2022/01/03 12:32:36;;;;;;;44.25;22.73;;;8.10;83.50;;;;;;5037652;28;20034;-73
2022/01/03 12:35:10;;;;;;;36.15;23.60;;;8.10;83.70;;;;;;5049831;28;20430;-75
2022/01/03 12:37:38;;;;;;;35.67;21.95;;;8.10;84.00;;;;;;5038756;28;20356;-77
2022/01/03 12:40:06;;;;;;;35.75;21.38;;;8.00;84.40;;;;;;5042113;28;20022;-73
2022/01/03 12:42:51;;;;;;;36.17;21.55;;;7.90;84.90;;;;;;5036664;28;20037;-75
2022/01/03 12:45:28;;;;;;;50.53;26.38;;;7.80;85.40;;;;;;5035515;28;20032;-73
2022/01/03 12:48:15;;;;;;;67.88;33.55;;;7.70;85.80;;;;;;5039827;28;20025;-75
2022/01/03 12:50:53;;;;;;;62.83;31.50;;;7.70;86.30;;;;;;5044077;28;20037;-73
2022/01/03 12:53:39;;;;;;;78.07;35.40;;;7.50;86.80;;;;;;5052670;28;20021;-76
2022/01/03 12:56:10;;;;;;;71.80;34.17;;;7.40;86.90;;;;;;5036754;28;20025;-74
2022/01/03 12:58:35;;;;;;;68.18;31.27;;;7.30;87.30;;;;;;5036025;28;20042;-70
2022/01/03 13:01:25;;;;;;;60.67;28.98;;;7.30;87.60;;;;;;5051426;28;20059;-75
2022/01/03 13:03:55;;;;;;;56.53;27.33;;;7.20;88.00;;;;;;5039838;28;20017;-75
2022/01/03 13:06:24;;;;;;;56.25;28.25;;;7.20;88.50;;;;;;5039551;28;20025;-74
2022/01/03 13:08:55;;;;;;;61.47;28.33;;;7.10;88.80;;;;;;5040176;28;20021;-77
2022/01/03 13:11:35;;;;;;;49.65;26.48;;;7.00;89.30;;;;;;5041024;28;20395;-72
2022/01/03 13:14:07;;;;;;;53.08;26.63;;;7.00;89.60;;;;;;5046382;28;20127;-74